Medowie, Australia
Current Conditions -  °F | °C
As of 2:30 PM on Sunday 26 Oct 2014 (Local Time) from YWLM Reporting Station
Clear Clear  
Wind Chill: 91°   Ceiling: Unl
Heat Index: 91°   Visibility: 6mi
Dew Point: 61°   Wind: 13mph
Humidity: 36%   Direction: 130°SE
Pressure: 29.71"   Gusts: NA
Location:  32.74°S, 151.86°E
Report Text: YWLM 260330Z 13011KT CAVOK 33/16 Q1006
Loading
Personal Weather Stations






























Interactive Weather Map
Tropical Storm Tracking
New forecast layout! Learn more

10-Day Weather Forecast

Advertisements
Track Severe Weather on mobile